Terminal Aerodrome Forecast
Issued by NWS Riverton, WY

Home | Current Version | Previous Version | Text Only | Print | Product List | Glossary On
Versions: 1 2 3 4 5 6 7 8 9 10 11 12 13 14 15
000
FTUS45 KRIW 030500
TAFRIW
TAF
KRIW 030534Z 0306/0406 03014G24KT 1 1/2SM -SN BLSN OVC015
     FM031400 02012G20KT 5SM -SN OVC025
     FM031900 02011KT 6SM -SN OVC040
     FM040300 VRB05KT P6SM -SN SCT050 BKN080=

USA.gov is the U.S. government's official web portal to all federal, state and local government web resources and services.